createdAt,value
2018-08-31T00:00:11.994Z,10.07
2018-08-31T00:02:49.650Z,10.53
2018-08-31T00:05:46.982Z,10.47
2018-08-31T00:09:29.544Z,10.83
2018-08-31T00:12:41.716Z,9.63
2018-08-31T00:15:16.449Z,10.50
2018-08-31T00:17:52.054Z,12.33
2018-08-31T00:20:28.017Z,10.57
2018-08-31T00:23:02.929Z,12.13
2018-08-31T00:26:15.405Z,12.37
2018-08-31T00:29:55.541Z,10.83
2018-08-31T00:34:45.207Z,11.17
2018-08-31T00:37:45.171Z,11.50
2018-08-31T00:41:37.978Z,11.10
2018-08-31T00:45:08.953Z,11.63
2018-08-31T00:47:43.799Z,11.60
2018-08-31T00:50:18.830Z,11.20
2018-08-31T00:52:53.589Z,10.80
2018-08-31T00:55:28.857Z,11.57
2018-08-31T00:58:03.456Z,10.83
2018-08-31T01:00:38.932Z,11.20
2018-08-31T01:03:14.244Z,12.57
2018-08-31T01:05:48.973Z,12.23
2018-08-31T01:08:24.115Z,14.37
2018-08-31T01:10:58.810Z,12.80
2018-08-31T01:13:34.250Z,10.63
2018-08-31T01:16:09.341Z,11.63
2018-08-31T01:18:44.057Z,10.83
2018-08-31T01:21:18.693Z,11.40
2018-08-31T01:23:53.790Z,11.33
2018-08-31T01:26:28.734Z,15.23
2018-08-31T01:29:03.630Z,13.90
2018-08-31T01:31:38.806Z,11.37
2018-08-31T01:34:13.581Z,12.67
2018-08-31T01:36:48.255Z,12.87
2018-08-31T01:39:23.025Z,15.53
2018-08-31T01:41:57.808Z,17.37
2018-08-31T01:44:33.217Z,14.87
2018-08-31T01:47:07.906Z,15.57
2018-08-31T01:49:43.070Z,16.67
2018-08-31T01:52:18.481Z,18.00
2018-08-31T01:54:54.169Z,15.33
2018-08-31T01:57:28.979Z,18.33
2018-08-31T02:00:04.234Z,18.20
2018-08-31T02:02:39.490Z,15.93
2018-08-31T02:05:14.250Z,18.30
2018-08-31T02:07:49.373Z,17.43
2018-08-31T02:10:24.365Z,17.53
2018-08-31T02:12:59.370Z,18.47
2018-08-31T02:15:34.029Z,19.57
2018-08-31T02:18:08.837Z,18.30
2018-08-31T02:20:44.390Z,16.10
2018-08-31T02:23:19.066Z,17.67
2018-08-31T02:25:54.005Z,16.73
2018-08-31T02:28:28.857Z,15.37
2018-08-31T02:31:03.795Z,14.90
2018-08-31T02:33:39.507Z,17.13
2018-08-31T02:36:14.585Z,19.90
2018-08-31T02:38:49.833Z,21.63
2018-08-31T02:41:24.869Z,22.17
2018-08-31T02:43:59.874Z,19.37
2018-08-31T02:46:34.817Z,17.37
2018-08-31T02:49:09.858Z,21.80
2018-08-31T02:51:44.605Z,20.67
2018-08-31T02:54:19.525Z,21.67
2018-08-31T02:56:54.373Z,22.00
2018-08-31T02:59:29.337Z,19.43
2018-08-31T03:02:05.338Z,20.17
2018-08-31T03:04:40.974Z,21.47
2018-08-31T03:07:15.859Z,21.43
2018-08-31T03:09:50.695Z,21.57
2018-08-31T03:12:25.686Z,22.27
2018-08-31T03:15:00.442Z,21.97
2018-08-31T03:17:35.454Z,19.90
2018-08-31T03:20:10.141Z,24.83
2018-08-31T03:22:45.648Z,22.40
2018-08-31T03:25:20.304Z,22.40
2018-08-31T03:27:55.217Z,22.93
2018-08-31T03:30:30.162Z,24.70
2018-08-31T03:33:05.419Z,21.97
2018-08-31T03:35:40.265Z,23.67
2018-08-31T03:38:15.440Z,21.10
2018-08-31T03:40:50.474Z,23.27
2018-08-31T03:43:25.294Z,21.33
2018-08-31T03:46:00.710Z,21.83
2018-08-31T03:48:35.691Z,20.80
2018-08-31T03:51:10.526Z,17.30
2018-08-31T03:53:45.710Z,19.40
2018-08-31T03:56:20.582Z,19.63
2018-08-31T03:58:55.378Z,18.10
2018-08-31T04:01:30.966Z,17.97
2018-08-31T04:04:05.821Z,17.50
2018-08-31T04:06:40.729Z,18.33
2018-08-31T04:09:15.686Z,20.90
2018-08-31T04:11:50.899Z,18.17
2018-08-31T04:14:25.723Z,16.47
2018-08-31T04:17:07.237Z,17.43
2018-08-31T04:19:42.086Z,19.07
2018-08-31T04:22:17.090Z,18.33
2018-08-31T04:24:52.174Z,17.60
2018-08-31T04:27:27.075Z,17.37
2018-08-31T04:30:01.689Z,15.77
2018-08-31T04:32:36.505Z,16.47
2018-08-31T04:35:11.390Z,18.73
2018-08-31T04:37:46.065Z,18.40
2018-08-31T04:40:21.139Z,18.30
2018-08-31T04:42:55.986Z,16.57
2018-08-31T04:45:30.923Z,17.33
2018-08-31T04:48:06.369Z,16.67
2018-08-31T04:50:41.343Z,17.57
2018-08-31T04:53:16.069Z,16.90
2018-08-31T04:55:50.950Z,17.80
2018-08-31T04:58:25.902Z,21.23
2018-08-31T05:01:00.674Z,19.53
2018-08-31T05:03:35.630Z,16.60
2018-08-31T05:06:10.422Z,16.23
2018-08-31T05:08:45.957Z,17.93
2018-08-31T05:11:22.437Z,20.10
2018-08-31T05:13:58.249Z,16.53
2018-08-31T05:16:33.223Z,16.27
2018-08-31T05:19:07.934Z,18.17
2018-08-31T05:21:43.069Z,17.03
2018-08-31T05:24:17.698Z,17.17
2018-08-31T05:26:53.186Z,15.47
2018-08-31T05:29:28.164Z,16.60
2018-08-31T05:32:03.095Z,18.37
2018-08-31T05:34:38.269Z,16.17
2018-08-31T05:37:13.706Z,17.90
2018-08-31T05:39:48.642Z,20.13
2018-08-31T05:42:23.488Z,16.07
2018-08-31T05:44:58.662Z,16.43
2018-08-31T05:47:33.535Z,15.77
2018-08-31T05:50:08.383Z,19.17
2018-08-31T05:52:43.389Z,19.83
2018-08-31T05:55:18.186Z,19.00
2018-08-31T05:57:52.857Z,21.43
2018-08-31T06:00:28.012Z,28.87
2018-08-31T06:03:02.905Z,29.40
2018-08-31T06:05:37.638Z,29.63
2018-08-31T06:08:15.450Z,25.20
2018-08-31T06:10:50.238Z,27.47
2018-08-31T06:13:25.020Z,24.40
2018-08-31T06:16:00.898Z,26.67
2018-08-31T06:18:36.939Z,24.70
2018-08-31T06:21:12.107Z,20.63
2018-08-31T06:23:46.884Z,21.07
2018-08-31T06:26:21.878Z,22.60
2018-08-31T06:28:56.972Z,21.93
2018-08-31T06:31:31.790Z,22.17
2018-08-31T06:34:06.916Z,20.43
2018-08-31T06:36:41.537Z,22.40
2018-08-31T06:39:16.249Z,18.33
2018-08-31T06:41:51.086Z,21.23
2018-08-31T06:44:25.938Z,20.77
2018-08-31T06:47:00.721Z,21.70
2018-08-31T06:49:35.698Z,21.27
2018-08-31T06:52:10.489Z,22.43
2018-08-31T06:54:46.028Z,19.57
2018-08-31T06:57:20.897Z,19.63
2018-08-31T06:59:56.234Z,20.70
2018-08-31T07:02:31.018Z,19.17
2018-08-31T07:05:06.770Z,20.10
2018-08-31T07:07:41.589Z,19.83
2018-08-31T07:10:16.558Z,18.03
2018-08-31T07:12:51.447Z,17.23
2018-08-31T07:15:26.356Z,19.40
2018-08-31T07:18:01.515Z,19.77
2018-08-31T07:20:36.281Z,19.20
2018-08-31T07:23:11.087Z,17.83
2018-08-31T07:25:45.902Z,18.20
2018-08-31T07:28:20.930Z,20.00
2018-08-31T07:30:55.566Z,19.97
2018-08-31T07:33:30.407Z,21.13
2018-08-31T07:36:05.691Z,19.40
2018-08-31T07:38:40.371Z,22.17
2018-08-31T07:41:16.681Z,17.30
2018-08-31T07:43:51.551Z,19.00
2018-08-31T07:46:26.459Z,17.50
2018-08-31T07:49:01.712Z,16.73
2018-08-31T07:51:36.341Z,16.07
2018-08-31T07:54:11.154Z,17.63
2018-08-31T07:56:46.272Z,18.20
2018-08-31T07:59:20.945Z,17.20
2018-08-31T08:01:55.763Z,15.93
2018-08-31T08:04:30.593Z,15.23
2018-08-31T08:07:05.910Z,14.57
2018-08-31T08:09:41.021Z,17.27
2018-08-31T08:12:15.856Z,15.33
2018-08-31T08:14:50.739Z,16.93
2018-08-31T08:17:25.613Z,15.17
2018-08-31T08:20:01.159Z,13.23
2018-08-31T08:22:36.488Z,13.83
2018-08-31T08:25:11.784Z,13.37
2018-08-31T08:27:47.234Z,12.80
2018-08-31T08:30:22.346Z,15.53
2018-08-31T08:32:57.045Z,13.27
2018-08-31T08:35:32.678Z,12.80
2018-08-31T08:38:07.743Z,12.97
2018-08-31T08:40:42.635Z,13.63
2018-08-31T08:43:17.286Z,13.13
2018-08-31T08:45:52.664Z,12.40
2018-08-31T08:48:27.580Z,12.43
2018-08-31T08:51:03.226Z,12.93
2018-08-31T08:53:37.937Z,11.17
2018-08-31T08:56:13.002Z,16.47
2018-08-31T08:58:48.610Z,14.23
2018-08-31T09:01:23.513Z,14.20
2018-08-31T09:03:59.190Z,15.17
2018-08-31T09:06:34.724Z,13.43
2018-08-31T09:09:10.760Z,13.03
2018-08-31T09:11:46.316Z,12.63
2018-08-31T09:14:21.225Z,16.37
2018-08-31T09:16:56.260Z,13.93
2018-08-31T09:19:31.084Z,12.40
2018-08-31T09:22:10.223Z,12.40
2018-08-31T09:24:45.155Z,12.23
2018-08-31T09:27:20.174Z,13.10
2018-08-31T09:29:55.398Z,13.07
2018-08-31T09:32:32.318Z,13.10
2018-08-31T09:35:07.317Z,14.33
2018-08-31T09:37:42.107Z,13.97
2018-08-31T09:40:17.535Z,14.03
2018-08-31T09:42:53.007Z,13.20
2018-08-31T09:45:27.614Z,13.47
2018-08-31T09:48:02.628Z,13.63
2018-08-31T09:50:37.409Z,12.43
2018-08-31T09:53:13.121Z,14.53
2018-08-31T09:55:47.813Z,13.03
2018-08-31T09:58:22.776Z,11.03
2018-08-31T10:01:02.880Z,12.63
2018-08-31T10:03:37.929Z,11.80
2018-08-31T10:06:13.336Z,12.30
2018-08-31T10:08:48.888Z,11.20
2018-08-31T10:11:24.029Z,11.03
2018-08-31T10:13:59.478Z,11.40
2018-08-31T10:16:34.204Z,12.10
2018-08-31T10:19:09.061Z,12.57
2018-08-31T10:21:43.942Z,11.90
2018-08-31T10:24:19.421Z,12.13
2018-08-31T10:26:54.121Z,10.72
2018-08-31T10:29:29.400Z,13.50
2018-08-31T10:32:07.124Z,12.77
2018-08-31T10:34:42.350Z,16.85
2018-08-31T10:37:17.209Z,16.40
2018-08-31T10:39:51.970Z,14.30
2018-08-31T10:42:26.923Z,13.33
2018-08-31T10:45:01.690Z,16.07
2018-08-31T10:47:36.768Z,15.67
2018-08-31T10:50:12.425Z,26.03
2018-08-31T10:52:47.115Z,21.77
2018-08-31T10:55:22.221Z,37.50
2018-08-31T10:57:56.861Z,26.63
2018-08-31T11:00:31.925Z,20.27
2018-08-31T11:03:06.991Z,16.77
2018-08-31T11:05:41.814Z,15.83
2018-08-31T11:08:16.712Z,15.83
2018-08-31T11:10:51.515Z,17.43
2018-08-31T11:13:26.641Z,15.53
2018-08-31T11:16:01.461Z,14.57
2018-08-31T11:18:36.269Z,16.10
2018-08-31T11:21:11.040Z,15.67
2018-08-31T11:23:45.917Z,16.23
2018-08-31T11:26:20.663Z,14.93
2018-08-31T11:28:55.519Z,15.23
2018-08-31T11:31:30.307Z,15.70
2018-08-31T11:34:05.249Z,15.80
2018-08-31T11:36:40.667Z,16.10
2018-08-31T11:39:15.763Z,16.03
2018-08-31T11:41:50.757Z,18.80
2018-08-31T11:44:32.210Z,14.73
2018-08-31T11:47:07.130Z,16.67
2018-08-31T11:49:42.482Z,14.77
2018-08-31T11:52:17.533Z,18.13
2018-08-31T11:54:52.306Z,18.07
2018-08-31T11:57:27.141Z,19.97
2018-08-31T12:00:01.833Z,20.17
2018-08-31T12:02:36.632Z,20.70
2018-08-31T12:05:11.571Z,21.20
2018-08-31T12:07:46.431Z,21.53
2018-08-31T12:10:22.034Z,21.77
2018-08-31T12:12:56.818Z,20.60
2018-08-31T12:15:32.235Z,22.93
2018-08-31T12:18:07.342Z,23.97
2018-08-31T12:20:42.123Z,22.70
2018-08-31T12:23:17.522Z,23.43
2018-08-31T12:25:52.434Z,23.60
2018-08-31T12:28:28.077Z,23.60
2018-08-31T12:31:03.361Z,24.33
2018-08-31T12:33:38.779Z,25.40
2018-08-31T12:36:13.586Z,23.47
2018-08-31T12:38:48.521Z,26.57
2018-08-31T12:41:23.382Z,23.23
2018-08-31T12:43:58.601Z,22.63
2018-08-31T12:46:33.655Z,21.33
2018-08-31T12:49:09.712Z,21.80
2018-08-31T12:51:44.626Z,25.03
2018-08-31T12:54:19.654Z,22.53
2018-08-31T12:56:54.855Z,23.77
2018-08-31T12:59:29.939Z,22.20
2018-08-31T13:02:04.970Z,21.07
2018-08-31T13:04:40.036Z,20.40
2018-08-31T13:07:15.377Z,16.77
2018-08-31T13:09:50.311Z,16.80
2018-08-31T13:12:26.346Z,14.90
2018-08-31T13:15:01.128Z,14.33
2018-08-31T13:17:36.529Z,14.07
2018-08-31T13:20:11.345Z,12.33
2018-08-31T13:22:46.674Z,13.93
2018-08-31T13:25:21.777Z,11.77
2018-08-31T13:27:56.683Z,11.60
2018-08-31T13:30:31.489Z,10.57
2018-08-31T13:33:06.653Z,10.53
2018-08-31T13:35:41.460Z,8.57
2018-08-31T13:38:16.553Z,8.40
2018-08-31T13:40:51.894Z,7.80
2018-08-31T13:43:26.924Z,8.50
2018-08-31T13:46:01.990Z,9.10
2018-08-31T13:48:36.982Z,9.53
2018-08-31T13:51:11.982Z,11.40
2018-08-31T13:53:46.841Z,10.50
2018-08-31T13:56:22.822Z,10.83
2018-08-31T13:58:57.573Z,10.60
2018-08-31T14:01:32.572Z,12.07
2018-08-31T14:04:07.590Z,12.83
2018-08-31T14:06:43.386Z,12.63
2018-08-31T14:09:18.176Z,13.80
2018-08-31T14:11:53.034Z,14.90
2018-08-31T14:14:27.871Z,16.17
2018-08-31T14:17:03.262Z,15.60
2018-08-31T14:19:37.977Z,16.97
2018-08-31T14:22:13.095Z,17.50
2018-08-31T14:24:47.833Z,18.43
2018-08-31T14:27:22.940Z,18.90
2018-08-31T14:29:58.016Z,19.40
2018-08-31T14:32:33.573Z,20.23
2018-08-31T14:35:08.586Z,21.60
2018-08-31T14:37:44.611Z,22.73
2018-08-31T14:40:19.598Z,25.43
2018-08-31T14:42:54.763Z,31.07
2018-08-31T14:45:29.725Z,29.20
2018-08-31T14:48:04.680Z,28.37
2018-08-31T14:50:39.613Z,33.03
2018-08-31T14:53:15.091Z,29.30
2018-08-31T14:55:49.949Z,27.43
2018-08-31T14:58:25.076Z,27.77
2018-08-31T15:01:03.088Z,25.57
2018-08-31T15:03:38.405Z,27.07
2018-08-31T15:06:13.479Z,25.87
2018-08-31T15:08:48.422Z,23.10
2018-08-31T15:11:23.467Z,26.57
2018-08-31T15:13:58.517Z,29.10
2018-08-31T15:16:33.241Z,26.20
2018-08-31T15:19:08.707Z,26.00
2018-08-31T15:21:43.709Z,30.30
2018-08-31T15:24:18.849Z,30.40
2018-08-31T15:26:53.892Z,31.90
2018-08-31T15:29:28.832Z,39.77
2018-08-31T15:32:03.901Z,35.63
2018-08-31T15:34:38.824Z,29.30
2018-08-31T15:37:14.826Z,31.00
2018-08-31T15:39:50.220Z,32.23
2018-08-31T15:42:25.463Z,29.03
2018-08-31T15:45:00.490Z,29.07
2018-08-31T15:47:35.346Z,29.23
2018-08-31T15:50:10.149Z,28.23
2018-08-31T15:52:44.887Z,27.20
2018-08-31T15:55:20.447Z,29.73
2018-08-31T15:57:55.484Z,30.07
2018-08-31T16:00:30.309Z,27.90
2018-08-31T16:03:05.285Z,25.07
2018-08-31T16:05:40.446Z,24.60
2018-08-31T16:08:15.342Z,23.70
2018-08-31T16:10:51.147Z,23.80
2018-08-31T16:13:26.558Z,25.33
2018-08-31T16:16:01.376Z,27.20
2018-08-31T16:18:36.345Z,25.60
2018-08-31T16:21:11.290Z,24.20
2018-08-31T16:23:46.582Z,25.90
2018-08-31T16:26:21.474Z,24.00
2018-08-31T16:28:56.717Z,26.70
2018-08-31T16:31:31.895Z,27.47
2018-08-31T16:34:07.777Z,24.80
2018-08-31T16:36:43.105Z,22.80
2018-08-31T16:39:18.574Z,24.10
2018-08-31T16:41:53.793Z,29.13
2018-08-31T16:44:28.836Z,25.27
2018-08-31T16:47:03.656Z,22.47
2018-08-31T16:49:38.894Z,24.13
2018-08-31T16:52:13.893Z,23.00
2018-08-31T16:54:49.278Z,24.30
2018-08-31T16:57:24.166Z,27.37
2018-08-31T16:59:59.565Z,25.97
2018-08-31T17:02:35.182Z,26.90
2018-08-31T17:05:10.079Z,24.93
2018-08-31T17:07:45.439Z,26.20
2018-08-31T17:10:20.379Z,27.07
2018-08-31T17:12:55.903Z,29.50
2018-08-31T17:15:30.907Z,31.10
2018-08-31T17:18:05.785Z,27.27
2018-08-31T17:20:40.694Z,29.40
2018-08-31T17:23:15.560Z,30.73
2018-08-31T17:25:50.807Z,30.53
2018-08-31T17:28:30.984Z,31.97
2018-08-31T17:31:11.449Z,30.33
2018-08-31T17:33:51.431Z,33.40
2018-08-31T17:36:31.655Z,31.20
2018-08-31T17:39:09.111Z,31.70
2018-08-31T17:41:44.134Z,28.93
2018-08-31T17:44:19.142Z,27.27
2018-08-31T17:46:54.412Z,29.43
2018-08-31T17:49:29.557Z,32.87
2018-08-31T17:52:04.657Z,29.90
2018-08-31T17:54:39.588Z,31.37
2018-08-31T17:57:14.611Z,29.00
2018-08-31T17:59:49.693Z,29.07
2018-08-31T18:02:24.747Z,31.60
2018-08-31T18:04:59.730Z,28.07
2018-08-31T18:07:34.754Z,22.50
2018-08-31T18:10:09.613Z,28.07
2018-08-31T18:12:45.138Z,23.97
2018-08-31T18:15:20.100Z,24.00
2018-08-31T18:17:55.181Z,21.93
2018-08-31T18:20:30.293Z,16.03
2018-08-31T18:23:05.312Z,16.03
2018-08-31T18:25:40.557Z,15.83
2018-08-31T18:28:16.154Z,13.50
2018-08-31T18:30:52.506Z,13.03
2018-08-31T18:33:27.470Z,16.57
2018-08-31T18:36:02.728Z,13.87
2018-08-31T18:38:37.521Z,14.60
2018-08-31T18:41:12.332Z,15.37
2018-08-31T18:43:47.244Z,14.17
2018-08-31T18:46:22.571Z,16.47
2018-08-31T18:48:58.114Z,15.40
2018-08-31T18:51:33.024Z,15.13
2018-08-31T18:54:08.233Z,17.43
2018-08-31T18:56:44.186Z,20.03
2018-08-31T18:59:19.006Z,19.83
2018-08-31T19:01:54.325Z,17.53
2018-08-31T19:04:29.430Z,20.73
2018-08-31T19:07:05.563Z,20.87
2018-08-31T19:09:40.866Z,20.67
2018-08-31T19:12:15.655Z,20.10
2018-08-31T19:14:51.739Z,23.20
2018-08-31T19:17:26.853Z,22.03
2018-08-31T19:20:01.911Z,22.23
2018-08-31T19:22:37.444Z,23.73
2018-08-31T19:25:13.119Z,25.43
2018-08-31T19:27:48.717Z,27.57
2018-08-31T19:30:30.187Z,25.70
2018-08-31T19:33:05.040Z,25.93
2018-08-31T19:35:39.976Z,22.50
2018-08-31T19:38:14.882Z,24.93
2018-08-31T19:40:50.242Z,27.17
2018-08-31T19:43:25.457Z,22.63
2018-08-31T19:46:00.573Z,27.63
2018-08-31T19:48:35.479Z,31.67
2018-08-31T19:51:10.588Z,24.80
2018-08-31T19:53:45.558Z,30.63
2018-08-31T19:56:25.102Z,28.17
2018-08-31T19:59:00.579Z,27.77
2018-08-31T20:01:35.699Z,30.43
2018-08-31T20:04:10.732Z,29.70
2018-08-31T20:06:46.051Z,29.07
2018-08-31T20:09:21.466Z,30.57
2018-08-31T20:11:56.610Z,34.90
2018-08-31T20:14:31.567Z,32.67
2018-08-31T20:17:06.797Z,31.10
2018-08-31T20:19:43.982Z,27.37
2018-08-31T20:22:18.831Z,28.23
2018-08-31T20:24:53.810Z,28.67
2018-08-31T20:27:29.566Z,28.63
2018-08-31T20:30:04.879Z,32.80
2018-08-31T20:32:39.946Z,32.77
2018-08-31T20:35:16.525Z,34.80
2018-08-31T20:37:51.610Z,33.50
2018-08-31T20:40:26.197Z,34.07
2018-08-31T20:43:04.183Z,48.20
2018-08-31T20:45:39.593Z,45.30
2018-08-31T20:48:14.754Z,49.93
2018-08-31T20:50:49.877Z,60.30
2018-08-31T20:53:24.837Z,36.17
2018-08-31T20:55:59.670Z,37.87
2018-08-31T20:58:34.751Z,34.70
2018-08-31T21:01:10.018Z,33.30
2018-08-31T21:03:45.078Z,36.90
2018-08-31T21:06:20.356Z,38.13
2018-08-31T21:08:55.360Z,38.83
2018-08-31T21:11:30.331Z,41.77
2018-08-31T21:14:05.757Z,40.27
2018-08-31T21:16:40.582Z,38.47
2018-08-31T21:19:16.539Z,38.10
2018-08-31T21:21:51.634Z,38.40
2018-08-31T21:24:26.502Z,39.63
2018-08-31T21:27:01.721Z,37.10
2018-08-31T21:29:36.501Z,37.40
2018-08-31T21:32:11.671Z,38.70
2018-08-31T21:34:46.628Z,38.33
2018-08-31T21:37:21.662Z,38.43
2018-08-31T21:39:56.592Z,43.03
2018-08-31T21:42:31.625Z,41.80
2018-08-31T21:45:06.610Z,40.13
2018-08-31T21:47:41.682Z,40.63
2018-08-31T21:50:16.888Z,47.87
2018-08-31T21:52:51.682Z,45.73
2018-08-31T21:55:26.618Z,43.97
2018-08-31T21:58:01.795Z,44.77
2018-08-31T22:00:42.874Z,48.80
2018-08-31T22:03:17.854Z,44.80
2018-08-31T22:05:52.692Z,41.70
2018-08-31T22:08:27.694Z,46.30
2018-08-31T22:11:02.626Z,45.93
2018-08-31T22:13:37.494Z,42.37
2018-08-31T22:16:13.050Z,40.07
2018-08-31T22:18:47.720Z,40.43
2018-08-31T22:21:23.485Z,36.87
2018-08-31T22:23:58.307Z,39.43
2018-08-31T22:26:33.054Z,38.33
2018-08-31T22:29:09.697Z,40.13
2018-08-31T22:31:44.543Z,38.30
2018-08-31T22:34:19.682Z,43.47
2018-08-31T22:36:54.779Z,30.90
2018-08-31T22:39:29.785Z,37.07
2018-08-31T22:42:04.496Z,35.60
2018-08-31T22:44:39.353Z,42.60
2018-08-31T22:47:14.064Z,35.83
2018-08-31T22:49:49.013Z,36.53
2018-08-31T22:52:24.145Z,42.00
2018-08-31T22:54:59.161Z,37.87
2018-08-31T22:57:34.000Z,34.27
2018-08-31T23:00:09.178Z,35.83
2018-08-31T23:02:44.134Z,33.37
2018-08-31T23:05:19.028Z,37.10
2018-08-31T23:07:59.108Z,37.07
2018-08-31T23:10:34.089Z,38.47
2018-08-31T23:13:09.185Z,37.23
2018-08-31T23:15:44.222Z,39.47
2018-08-31T23:18:19.103Z,36.33
2018-08-31T23:20:53.851Z,41.30
2018-08-31T23:23:32.799Z,42.67
2018-08-31T23:26:08.010Z,44.23
2018-08-31T23:28:42.607Z,41.97
2018-08-31T23:31:17.444Z,43.23
2018-08-31T23:33:52.787Z,46.93
2018-08-31T23:36:27.634Z,49.23
2018-08-31T23:39:02.793Z,53.77
2018-08-31T23:41:37.629Z,61.20
2018-08-31T23:44:12.417Z,56.60
2018-08-31T23:46:47.190Z,58.17
2018-08-31T23:49:21.966Z,57.13
2018-08-31T23:51:56.915Z,57.53
2018-08-31T23:54:31.905Z,56.37
2018-08-31T23:57:06.736Z,57.10
2018-08-31T23:59:41.858Z,51.83
